createdAt,value
2018-02-15T00:02:11.390Z,91.94
2018-02-15T00:04:38.934Z,91.94
2018-02-15T00:07:06.497Z,91.63
2018-02-15T00:09:34.030Z,91.31
2018-02-15T00:12:01.641Z,91.85
2018-02-15T00:14:29.161Z,91.41
2018-02-15T00:16:56.701Z,91.14
2018-02-15T00:19:24.226Z,91.26
2018-02-15T00:21:51.752Z,91.18
2018-02-15T00:24:19.275Z,91.45
2018-02-15T00:26:46.800Z,90.99
2018-02-15T00:29:14.441Z,90.45
2018-02-15T00:31:41.985Z,89.88
2018-02-15T00:34:09.524Z,89.22
2018-02-15T00:36:37.054Z,89.34
2018-02-15T00:39:04.608Z,89.92
2018-02-15T00:41:32.115Z,89.36
2018-02-15T00:43:59.622Z,89.11
2018-02-15T00:46:27.154Z,88.75
2018-02-15T00:48:54.680Z,88.71
2018-02-15T00:51:22.200Z,86.79
2018-02-15T00:53:49.716Z,87.12
2018-02-15T00:56:17.252Z,86.02
2018-02-15T00:58:44.787Z,81.88
2018-02-15T01:01:12.310Z,75.29
2018-02-15T01:03:39.852Z,73.37
2018-02-15T01:06:07.485Z,68.62
2018-02-15T01:08:35.010Z,67.46
2018-02-15T01:11:02.516Z,66.48
2018-02-15T01:13:30.055Z,65.33
2018-02-15T01:15:57.577Z,65.36
2018-02-15T01:18:25.097Z,65.05
2018-02-15T01:20:52.620Z,63.24
2018-02-15T01:23:20.125Z,63.76
2018-02-15T01:25:47.640Z,63.15
2018-02-15T01:28:15.161Z,62.63
2018-02-15T01:30:42.678Z,62.52
2018-02-15T01:33:10.188Z,61.40
2018-02-15T01:35:37.713Z,61.89
2018-02-15T01:38:05.230Z,61.18
2018-02-15T01:40:32.745Z,60.58
2018-02-15T01:43:00.261Z,61.09
2018-02-15T01:45:27.786Z,60.84
2018-02-15T01:47:55.306Z,61.05
2018-02-15T01:50:22.847Z,59.48
2018-02-15T01:52:50.377Z,59.54
2018-02-15T01:55:17.888Z,59.41
2018-02-15T01:57:45.400Z,60.84
2018-02-15T02:00:12.925Z,62.23
2018-02-15T02:02:40.470Z,63.85
2018-02-15T02:05:08.012Z,67.35
2018-02-15T02:07:35.540Z,64.67
2018-02-15T02:10:03.080Z,67.77
2018-02-15T02:12:30.612Z,66.99
2018-02-15T02:14:58.125Z,72.07
2018-02-15T02:17:25.655Z,72.51
2018-02-15T02:19:53.171Z,73.61
2018-02-15T02:22:20.713Z,75.17
2018-02-15T02:24:48.235Z,76.14
2018-02-15T02:27:15.776Z,75.27
2018-02-15T02:29:43.295Z,75.00
2018-02-15T02:32:10.810Z,75.59
2018-02-15T02:34:38.340Z,75.84
2018-02-15T02:37:05.859Z,75.84
2018-02-15T02:39:33.376Z,76.83
2018-02-15T02:42:00.992Z,76.59
2018-02-15T02:44:28.527Z,77.61
2018-02-15T02:46:56.057Z,78.26
2018-02-15T02:49:23.596Z,78.09
2018-02-15T02:51:51.131Z,77.54
2018-02-15T02:54:18.662Z,77.87
2018-02-15T02:56:48.046Z,78.26
2018-02-15T02:59:15.592Z,78.87
2018-02-15T03:01:43.132Z,81.15
2018-02-15T03:04:10.671Z,81.70
2018-02-15T03:06:38.217Z,81.57
2018-02-15T03:09:05.781Z,80.92
2018-02-15T03:11:33.317Z,79.82
2018-02-15T03:14:00.918Z,79.71
2018-02-15T03:16:28.443Z,79.58
2018-02-15T03:18:55.971Z,79.36
2018-02-15T03:21:23.488Z,80.52
2018-02-15T03:23:51.048Z,80.97
2018-02-15T03:26:18.585Z,81.58
2018-02-15T03:28:46.135Z,82.40
2018-02-15T03:31:13.677Z,81.54
2018-02-15T03:33:41.200Z,80.80
2018-02-15T03:36:08.710Z,79.88
2018-02-15T03:38:36.225Z,79.80
2018-02-15T03:41:03.767Z,81.54
2018-02-15T03:43:31.300Z,81.95
2018-02-15T03:45:58.836Z,83.66
2018-02-15T03:48:26.397Z,83.62
2018-02-15T03:50:53.936Z,82.81
2018-02-15T03:53:21.452Z,82.91
2018-02-15T03:55:48.990Z,83.28
2018-02-15T03:58:16.529Z,84.47
2018-02-15T04:00:44.043Z,84.47
2018-02-15T04:03:11.570Z,83.67
2018-02-15T04:05:39.112Z,84.21
2018-02-15T04:08:06.663Z,83.67
2018-02-15T04:10:34.188Z,83.58
2018-02-15T04:13:01.740Z,82.85
2018-02-15T04:15:29.416Z,83.28
2018-02-15T04:17:56.930Z,83.54
2018-02-15T04:20:24.441Z,83.50
2018-02-15T04:22:51.991Z,83.52
2018-02-15T04:25:19.517Z,82.55
2018-02-15T04:27:47.050Z,82.77
2018-02-15T04:30:14.580Z,84.02
2018-02-15T04:32:42.111Z,84.80
2018-02-15T04:35:09.655Z,84.83
2018-02-15T04:37:37.165Z,84.61
2018-02-15T04:40:04.755Z,83.22
2018-02-15T04:42:32.250Z,82.77
2018-02-15T04:44:59.770Z,83.54
2018-02-15T04:47:27.283Z,84.52
2018-02-15T04:49:54.795Z,83.63
2018-02-15T04:52:22.331Z,83.12
2018-02-15T04:54:49.860Z,82.90
2018-02-15T04:57:17.421Z,83.36
2018-02-15T04:59:44.945Z,84.36
2018-02-15T05:02:12.486Z,84.65
2018-02-15T05:04:40.034Z,84.49
2018-02-15T05:07:07.560Z,84.43
2018-02-15T05:09:35.097Z,85.07
2018-02-15T05:12:02.666Z,84.10
2018-02-15T05:14:30.183Z,84.33
2018-02-15T05:16:57.712Z,84.88
2018-02-15T05:19:25.244Z,84.08
2018-02-15T05:21:52.779Z,83.59
2018-02-15T05:24:20.327Z,83.64
2018-02-15T05:26:47.844Z,83.49
2018-02-15T05:29:15.366Z,83.99
2018-02-15T05:31:42.887Z,84.75
2018-02-15T05:34:10.405Z,84.34
2018-02-15T05:36:37.916Z,84.64
2018-02-15T05:39:05.536Z,85.68
2018-02-15T05:41:33.055Z,85.79
2018-02-15T05:44:00.766Z,85.38
2018-02-15T05:46:28.300Z,85.89
2018-02-15T05:48:55.827Z,86.67
2018-02-15T05:51:23.336Z,86.00
2018-02-15T05:53:50.856Z,85.46
2018-02-15T05:56:18.376Z,85.15
2018-02-15T05:58:45.904Z,84.81
2018-02-15T06:01:13.430Z,84.37
2018-02-15T06:03:40.945Z,84.59
2018-02-15T06:06:08.633Z,84.20
2018-02-15T06:08:36.171Z,83.20
2018-02-15T06:11:03.725Z,83.58
2018-02-15T06:13:31.286Z,84.54
2018-02-15T06:15:58.838Z,85.30
2018-02-15T06:18:26.439Z,84.46
2018-02-15T06:20:54.750Z,83.99
2018-02-15T06:23:22.341Z,83.50
2018-02-15T06:25:49.886Z,83.43
2018-02-15T06:28:17.466Z,84.33
2018-02-15T06:30:45.241Z,85.23
2018-02-15T06:33:12.817Z,85.37
2018-02-15T06:35:40.398Z,84.93
2018-02-15T06:38:07.961Z,84.54
2018-02-15T06:40:35.556Z,84.05
2018-02-15T06:43:03.111Z,83.68
2018-02-15T06:45:30.692Z,83.42
2018-02-15T06:47:58.246Z,84.42
2018-02-15T06:50:25.801Z,84.64
2018-02-15T06:52:53.343Z,85.68
2018-02-15T06:55:20.892Z,85.57
2018-02-15T06:57:48.522Z,85.14
2018-02-15T07:00:16.096Z,84.73
2018-02-15T07:02:43.652Z,83.72
2018-02-15T07:05:11.201Z,84.98
2018-02-15T07:07:38.766Z,85.04
2018-02-15T07:10:06.334Z,84.42
2018-02-15T07:12:34.031Z,83.87
2018-02-15T07:15:01.606Z,83.13
2018-02-15T07:17:29.192Z,82.88
2018-02-15T07:19:56.748Z,83.66
2018-02-15T07:22:24.331Z,83.54
2018-02-15T07:24:51.903Z,83.43
2018-02-15T07:27:19.457Z,82.66
2018-02-15T07:29:47.016Z,82.29
2018-02-15T07:32:14.597Z,81.58
2018-02-15T07:34:42.152Z,81.10
2018-02-15T07:37:09.746Z,80.76
2018-02-15T07:39:37.327Z,79.58
2018-02-15T07:42:05.438Z,79.84
2018-02-15T07:44:33.007Z,79.48
2018-02-15T07:47:00.745Z,79.23
2018-02-15T07:49:28.374Z,79.15
2018-02-15T07:51:55.937Z,79.71
2018-02-15T07:54:23.518Z,79.88
2018-02-15T07:56:51.303Z,79.62
2018-02-15T07:59:18.901Z,79.54
2018-02-15T08:01:46.465Z,78.23
2018-02-15T08:04:14.026Z,79.01
2018-02-15T08:06:41.600Z,78.57
2018-02-15T08:09:09.231Z,79.45
2018-02-15T08:11:36.807Z,78.85
2018-02-15T08:14:04.357Z,78.23
2018-02-15T08:16:31.948Z,79.33
2018-02-15T08:18:59.522Z,79.24
2018-02-15T08:21:27.082Z,78.90
2018-02-15T08:23:54.675Z,78.88
2018-02-15T08:26:22.378Z,81.18
2018-02-15T08:28:49.947Z,82.77
2018-02-15T08:31:17.513Z,83.34
2018-02-15T08:33:45.096Z,81.16
2018-02-15T08:36:12.656Z,82.74
2018-02-15T08:38:40.201Z,82.44
2018-02-15T08:41:07.857Z,81.89
2018-02-15T08:43:35.443Z,81.33
2018-02-15T08:46:03.021Z,81.37
2018-02-15T08:48:30.807Z,81.26
2018-02-15T08:50:58.443Z,81.30
2018-02-15T08:53:26.037Z,80.96
2018-02-15T08:55:53.613Z,83.38
2018-02-15T08:58:21.211Z,82.46
2018-02-15T09:00:48.780Z,83.02
2018-02-15T09:03:16.413Z,82.92
2018-02-15T09:05:43.977Z,82.40
2018-02-15T09:08:11.611Z,81.42
2018-02-15T09:10:39.183Z,81.71
2018-02-15T09:13:06.767Z,81.75
2018-02-15T09:15:34.335Z,80.56
2018-02-15T09:18:02.247Z,79.96
2018-02-15T09:20:29.822Z,79.50
2018-02-15T09:22:57.391Z,77.47
2018-02-15T09:25:24.970Z,78.55
2018-02-15T09:27:52.561Z,77.95
2018-02-15T09:30:20.168Z,75.80
2018-02-15T09:32:47.828Z,78.11
2018-02-15T09:35:15.395Z,79.86
2018-02-15T09:37:42.990Z,79.08
2018-02-15T09:40:10.542Z,79.12
2018-02-15T09:42:38.113Z,78.40
2018-02-15T09:45:05.675Z,80.19
2018-02-15T09:47:33.298Z,82.09
2018-02-15T09:50:00.868Z,81.49
2018-02-15T09:52:28.468Z,83.42
2018-02-15T09:54:56.096Z,84.13
2018-02-15T09:57:25.923Z,81.83
2018-02-15T09:59:53.511Z,81.60
2018-02-15T10:02:22.057Z,82.06
2018-02-15T10:04:49.726Z,80.52
2018-02-15T10:07:17.300Z,78.43
2018-02-15T10:09:44.948Z,76.41
2018-02-15T10:12:12.512Z,76.44
2018-02-15T10:28:09.194Z,73.68
2018-02-15T10:40:45.237Z,74.43
2018-02-15T10:43:12.890Z,74.91
2018-02-15T10:45:40.562Z,74.72
2018-02-15T10:48:08.258Z,73.23
2018-02-15T10:50:36.109Z,73.41
2018-02-15T10:53:03.771Z,73.93
2018-02-15T10:55:31.467Z,75.00
2018-02-15T10:57:59.098Z,75.08
2018-02-15T11:00:32.573Z,76.28
2018-02-15T11:03:05.881Z,77.93
2018-02-15T11:05:34.462Z,80.30
2018-02-15T11:08:02.237Z,79.60
2018-02-15T11:10:29.896Z,79.61
2018-02-15T11:12:57.721Z,81.33
2018-02-15T11:15:25.837Z,82.36
2018-02-15T11:17:53.557Z,81.48
2018-02-15T11:20:21.211Z,79.56
2018-02-15T11:22:48.857Z,78.45
2018-02-15T11:25:16.501Z,79.31
2018-02-15T11:27:44.067Z,77.94
2018-02-15T11:30:11.635Z,78.83
2018-02-15T11:32:39.202Z,78.64
2018-02-15T11:35:06.986Z,79.10
2018-02-15T11:37:34.563Z,79.83
2018-02-15T11:40:04.056Z,78.71
2018-02-15T11:42:31.761Z,80.66
2018-02-15T11:44:59.596Z,80.22
2018-02-15T11:47:27.784Z,78.75
2018-02-15T11:49:56.052Z,79.64
2018-02-15T11:52:23.838Z,81.43
2018-02-15T11:54:51.536Z,81.40
2018-02-15T11:57:19.306Z,81.92
2018-02-15T11:59:46.918Z,81.79
2018-02-15T12:02:14.591Z,83.06
2018-02-15T12:04:42.236Z,83.49
2018-02-15T12:07:09.900Z,83.80
2018-02-15T12:09:37.686Z,85.25
2018-02-15T12:12:05.335Z,85.31
2018-02-15T12:14:33.327Z,86.43
2018-02-15T12:17:01.263Z,86.47
2018-02-15T12:19:29.526Z,86.32
2018-02-15T12:21:57.432Z,87.85
2018-02-15T12:24:25.535Z,87.04
2018-02-15T12:26:53.578Z,87.68
2018-02-15T12:29:21.301Z,85.19
2018-02-15T12:31:49.070Z,85.54
2018-02-15T12:34:16.880Z,85.49
2018-02-15T12:36:44.542Z,87.02
2018-02-15T12:39:12.113Z,88.88
2018-02-15T12:44:41.579Z,90.71
2018-02-15T12:47:09.393Z,88.56
2018-02-15T12:49:37.222Z,88.45
2018-02-15T12:52:05.377Z,88.66
2018-02-15T12:54:33.208Z,89.24
2018-02-15T12:57:00.973Z,89.74
2018-02-15T12:59:28.725Z,90.44
2018-02-15T13:01:56.297Z,88.53
2018-02-15T13:04:24.013Z,88.49
2018-02-15T13:06:51.707Z,87.82
2018-02-15T13:09:19.296Z,88.19
2018-02-15T13:11:47.098Z,89.12
2018-02-15T13:14:14.676Z,88.60
2018-02-15T13:17:00.203Z,87.87
2018-02-15T13:22:42.051Z,87.69
2018-02-15T13:25:09.653Z,87.92
2018-02-15T13:27:49.192Z,87.21
2018-02-15T13:30:16.956Z,89.99
2018-02-15T13:32:44.762Z,91.22
2018-02-15T13:35:12.379Z,91.40
2018-02-15T13:37:40.208Z,90.71
2018-02-15T13:40:07.917Z,89.60
2018-02-15T13:42:35.713Z,90.48
2018-02-15T13:45:03.467Z,90.10
2018-02-15T13:47:31.048Z,89.61
2018-02-15T13:49:59.507Z,90.19
2018-02-15T13:52:28.274Z,89.47
2018-02-15T13:54:55.986Z,89.48
2018-02-15T13:57:23.696Z,88.69
2018-02-15T13:59:51.608Z,89.71
2018-02-15T14:02:19.362Z,90.78
2018-02-15T14:04:46.972Z,89.50
2018-02-15T14:07:15.537Z,89.90
2018-02-15T14:09:43.216Z,89.27
2018-02-15T14:12:11.173Z,89.08
2018-02-15T14:14:38.758Z,88.68
2018-02-15T14:17:06.496Z,90.11
2018-02-15T14:19:34.062Z,91.41
2018-02-15T14:22:01.808Z,92.37
2018-02-15T14:24:29.506Z,91.89
2018-02-15T14:26:57.323Z,92.03
2018-02-15T14:29:24.989Z,91.42
2018-02-15T14:31:52.587Z,91.51
2018-02-15T14:34:20.536Z,92.68
2018-02-15T14:36:48.106Z,93.76
2018-02-15T14:39:15.803Z,94.27
2018-02-15T14:41:43.598Z,94.25
2018-02-15T14:44:11.243Z,92.94
2018-02-15T14:46:38.923Z,93.22
2018-02-15T14:49:06.651Z,93.24
2018-02-15T14:51:34.518Z,92.79
2018-02-15T14:54:02.857Z,93.64
2018-02-15T14:56:30.477Z,93.75
2018-02-15T14:58:59.037Z,93.79
2018-02-15T15:01:26.609Z,93.50
2018-02-15T15:03:54.261Z,93.10
2018-02-15T15:06:21.856Z,93.51
2018-02-15T15:08:49.488Z,94.40
2018-02-15T15:11:17.136Z,94.02
2018-02-15T15:13:44.927Z,93.75
2018-02-15T15:16:12.558Z,93.32
2018-02-15T15:18:40.271Z,93.77
2018-02-15T15:21:08.061Z,93.95
2018-02-15T15:23:36.142Z,94.15
2018-02-15T15:26:03.841Z,93.97
2018-02-15T15:28:31.467Z,93.71
2018-02-15T15:30:59.197Z,93.75
2018-02-15T15:33:26.958Z,93.89
2018-02-15T15:35:54.610Z,93.88
2018-02-15T15:38:22.281Z,94.25
2018-02-15T15:40:49.986Z,93.91
2018-02-15T15:43:17.737Z,94.44
2018-02-15T15:45:45.476Z,94.34
2018-02-15T15:48:13.068Z,95.12
2018-02-15T15:50:40.832Z,95.32
2018-02-15T15:53:08.447Z,95.61
2018-02-15T15:55:36.179Z,95.60
2018-02-15T15:58:03.971Z,95.30
2018-02-15T16:00:31.678Z,95.37
2018-02-15T16:02:59.407Z,95.78
2018-02-15T16:05:27.188Z,96.13
2018-02-15T16:07:55.049Z,96.46
2018-02-15T16:10:22.851Z,96.79
2018-02-15T16:12:50.447Z,97.30
2018-02-15T16:15:18.728Z,97.66
2018-02-15T16:17:46.407Z,97.45
2018-02-15T16:20:14.038Z,97.62
2018-02-15T16:22:41.857Z,97.57
2018-02-15T16:25:09.467Z,97.59
2018-02-15T16:27:37.053Z,96.99
2018-02-15T16:30:04.638Z,96.71
2018-02-15T16:32:32.217Z,96.50
2018-02-15T16:34:59.781Z,96.88
2018-02-15T16:37:27.935Z,97.00
2018-02-15T16:39:55.686Z,97.64
2018-02-15T16:42:23.299Z,97.72
2018-02-15T16:44:51.016Z,97.64
2018-02-15T16:47:18.742Z,98.14
2018-02-15T16:49:46.512Z,98.14
2018-02-15T16:52:15.018Z,98.33
2018-02-15T16:54:42.716Z,98.30
2018-02-15T16:57:10.480Z,98.08
2018-02-15T16:59:38.217Z,97.91
2018-02-15T17:02:06.113Z,98.02
2018-02-15T17:04:34.777Z,97.95
2018-02-15T17:07:02.593Z,97.88
2018-02-15T17:09:30.301Z,98.19
2018-02-15T17:11:57.907Z,98.19
2018-02-15T17:14:25.912Z,98.21
2018-02-15T17:17:24.836Z,97.80
2018-02-15T17:19:52.483Z,98.07
2018-02-15T17:22:20.217Z,98.00
2018-02-15T17:24:48.036Z,98.01
2018-02-15T17:27:15.871Z,97.81
2018-02-15T17:29:44.253Z,97.87
2018-02-15T17:32:11.882Z,97.78
2018-02-15T17:34:39.583Z,97.60
2018-02-15T17:37:07.321Z,96.95
2018-02-15T17:39:35.193Z,96.97
2018-02-15T17:42:02.798Z,96.95
2018-02-15T17:44:31.873Z,96.72
2018-02-15T17:46:59.808Z,96.67
2018-02-15T17:49:28.787Z,96.81
2018-02-15T17:54:38.607Z,96.98
2018-02-15T18:00:27.163Z,97.28
2018-02-15T18:02:55.408Z,97.46
2018-02-15T18:05:23.021Z,97.49
2018-02-15T18:07:50.729Z,97.53
2018-02-15T18:10:18.403Z,97.47
2018-02-15T18:12:46.291Z,97.37
2018-02-15T18:15:13.973Z,97.46
2018-02-15T18:17:41.708Z,97.55
2018-02-15T18:20:09.573Z,97.45
2018-02-15T18:22:37.754Z,97.46
2018-02-15T18:25:05.520Z,97.45
2018-02-15T18:27:35.209Z,97.49
2018-02-15T18:30:03.057Z,97.48
2018-02-15T18:32:30.851Z,97.50
2018-02-15T18:35:06.208Z,97.39
2018-02-15T18:37:34.157Z,97.29
2018-02-15T18:40:01.862Z,97.18
2018-02-15T18:42:29.456Z,96.93
2018-02-15T18:44:57.128Z,97.00
2018-02-15T18:47:24.808Z,96.95
2018-02-15T18:49:52.492Z,96.94
2018-02-15T18:52:20.970Z,97.01
2018-02-15T18:54:49.222Z,97.16
2018-02-15T18:57:17.084Z,96.98
2018-02-15T18:59:44.809Z,96.87
2018-02-15T19:02:12.512Z,96.95
2018-02-15T19:04:40.603Z,96.91
2018-02-15T19:07:08.223Z,96.95
2018-02-15T19:09:36.007Z,96.99
2018-02-15T19:12:03.691Z,97.01
2018-02-15T19:14:31.288Z,97.08
2018-02-15T19:16:58.914Z,97.25
2018-02-15T19:19:26.740Z,97.55
2018-02-15T19:21:54.900Z,97.52
2018-02-15T19:24:22.673Z,97.28
2018-02-15T19:26:51.765Z,97.15
2018-02-15T19:29:19.892Z,97.19
2018-02-15T19:31:47.665Z,97.18
2018-02-15T19:34:15.372Z,97.33
2018-02-15T19:36:43.691Z,97.33
2018-02-15T19:39:11.340Z,97.26
2018-02-15T19:41:39.012Z,97.04
2018-02-15T19:44:06.678Z,96.74
2018-02-15T19:46:34.688Z,96.62
2018-02-15T19:49:03.052Z,96.61
2018-02-15T19:51:31.038Z,96.78
2018-02-15T19:53:58.971Z,96.88
2018-02-15T19:56:27.086Z,97.16
2018-02-15T19:58:55.974Z,97.31
2018-02-15T20:01:24.669Z,97.19
2018-02-15T20:03:52.347Z,97.29
2018-02-15T20:06:21.125Z,97.73
2018-02-15T20:08:49.026Z,98.02
2018-02-15T20:11:16.931Z,97.96
2018-02-15T20:13:44.633Z,97.93
2018-02-15T20:16:12.587Z,98.24
2018-02-15T20:18:40.185Z,98.11
2018-02-15T20:21:08.045Z,97.93
2018-02-15T20:23:35.639Z,97.80
2018-02-15T20:26:08.842Z,97.78
2018-02-15T20:28:36.743Z,97.78
2018-02-15T20:31:05.042Z,97.64
2018-02-15T20:33:32.802Z,97.62
2018-02-15T20:36:00.567Z,97.54
2018-02-15T20:38:33.821Z,97.29
2018-02-15T20:41:01.823Z,97.41
2018-02-15T20:43:29.594Z,97.31
2018-02-15T20:45:57.363Z,97.35
2018-02-15T20:48:25.001Z,97.73
2018-02-15T20:50:58.486Z,98.74
2018-02-15T20:56:28.594Z,99.58
2018-02-15T20:58:56.322Z,99.77
2018-02-15T21:01:24.029Z,100.00
2018-02-15T21:03:51.797Z,100.00
2018-02-15T21:06:19.622Z,100.00
2018-02-15T21:12:18.142Z,100.00
2018-02-15T21:14:46.014Z,100.00
2018-02-15T21:17:15.005Z,100.00
2018-02-15T21:19:42.936Z,100.00
2018-02-15T21:22:10.734Z,99.95
2018-02-15T21:24:38.731Z,99.73
2018-02-15T21:27:07.062Z,99.36
2018-02-15T21:29:35.037Z,99.00
2018-02-15T21:32:02.721Z,98.99
2018-02-15T21:34:30.428Z,99.19
2018-02-15T21:36:58.141Z,99.17
2018-02-15T21:39:26.237Z,99.14
2018-02-15T21:41:53.986Z,99.21
2018-02-15T21:44:21.843Z,99.17
2018-02-15T21:46:49.557Z,100.00
2018-02-15T21:49:17.193Z,100.00
2018-02-15T21:51:44.823Z,100.00
2018-02-15T21:54:13.254Z,99.45
2018-02-15T21:56:40.896Z,99.26
2018-02-15T21:59:08.821Z,99.61
2018-02-15T22:01:36.613Z,99.72
2018-02-15T22:04:04.367Z,99.67
2018-02-15T22:06:32.242Z,99.58
2018-02-15T22:09:00.018Z,99.64
2018-02-15T22:11:28.148Z,99.66
2018-02-15T22:13:55.915Z,99.58
2018-02-15T22:16:23.892Z,99.61
2018-02-15T22:18:51.807Z,99.58
2018-02-15T22:21:19.582Z,99.52
2018-02-15T22:23:47.433Z,99.48
2018-02-15T22:26:15.210Z,99.48
2018-02-15T22:28:43.241Z,99.51
2018-02-15T22:31:11.303Z,99.78
2018-02-15T22:33:39.024Z,100.00
2018-02-15T22:36:07.186Z,100.00
2018-02-15T22:38:34.986Z,100.00
2018-02-15T22:41:02.602Z,100.00
2018-02-15T22:43:30.128Z,99.94
2018-02-15T22:45:57.758Z,99.74
2018-02-15T22:48:25.307Z,99.74
2018-02-15T22:50:52.831Z,99.69
2018-02-15T22:53:20.383Z,99.46
2018-02-15T22:55:48.028Z,99.23
2018-02-15T22:58:15.621Z,99.14
2018-02-15T23:00:44.412Z,99.20
2018-02-15T23:03:12.035Z,99.24
2018-02-15T23:05:39.568Z,99.47
2018-02-15T23:08:07.221Z,99.61
2018-02-15T23:10:36.952Z,99.39
2018-02-15T23:13:04.742Z,99.25
2018-02-15T23:15:32.408Z,99.31
2018-02-15T23:18:00.348Z,99.27
2018-02-15T23:20:27.985Z,99.06
2018-02-15T23:22:56.307Z,98.93
2018-02-15T23:25:23.947Z,98.89
2018-02-15T23:27:52.383Z,98.76
2018-02-15T23:30:19.933Z,98.43
2018-02-15T23:32:47.446Z,97.98
2018-02-15T23:35:15.227Z,97.92
2018-02-15T23:37:42.886Z,97.92
2018-02-15T23:40:10.662Z,97.94
2018-02-15T23:42:38.266Z,97.88
2018-02-15T23:45:05.948Z,97.88
2018-02-15T23:47:33.615Z,97.63
2018-02-15T23:50:01.352Z,97.62
2018-02-15T23:52:28.987Z,97.90
2018-02-15T23:54:56.762Z,98.60
2018-02-15T23:57:24.496Z,98.92
2018-02-15T23:59:52.246Z,99.09
